B603L LTBA-EGGD
Flight info
| Callsign | B603L |
|---|---|
| Flight time | 4h 28m |
| Altitude | 38000 |
| Route | VADEN Y520 DINEN Y551 NAVOD DCT PADGU DCT KEROP DCT SASAL/N0451F400 DCT SUBEN T161 AKINI T159 PETIX Z744 COSJE T892 RIDSU Z114 ADENU L608 DENUT L610 KOPUL Q63 ICTAM |
| Aircraft | CL60/M-SBDE1E2E3FGHIJ1J4J5J7M3RWXYZ/LB1V1D1 |
Departure
| Time | 2026-04-25 06:14 |
|---|---|
| Airport | İstanbul Atatürk Airport (LTBA) |
Arrival
| Time | 2026-04-25 10:43 |
|---|---|
| Airport | Bristol Airport (EGGD) |
| Time | Latitude | Longitude | Altitude | Speed | Heading |
|---|---|---|---|---|---|
| 2026-04-25 05:59 | 40.97227 | 28.81340 | 92 ft | 0 kts | 268° |
| 2026-04-25 06:02 | 40.97227 | 28.81342 | 92 ft | 0 kts | 252° |
| 2026-04-25 06:02 | 40.97229 | 28.81341 | 92 ft | 1 kts | 17° |
| 2026-04-25 06:08 | 40.97249 | 28.81349 | 92 ft | 6 kts | 42° |
| 2026-04-25 06:08 | 40.97240 | 28.81421 | 90 ft | 11 kts | 139° |
| 2026-04-25 06:08 | 40.97146 | 28.81439 | 87 ft | 15 kts | 178° |
| 2026-04-25 06:08 | 40.97031 | 28.81450 | 85 ft | 13 kts | 154° |
| 2026-04-25 06:09 | 40.97019 | 28.81561 | 82 ft | 15 kts | 58° |
| 2026-04-25 06:09 | 40.97081 | 28.81695 | 83 ft | 17 kts | 60° |
| 2026-04-25 06:09 | 40.97145 | 28.81833 | 85 ft | 17 kts | 58° |
| 2026-04-25 06:09 | 40.97194 | 28.81938 | 88 ft | 5 kts | 58° |
| 2026-04-25 06:10 | 40.97198 | 28.81948 | 88 ft | 0 kts | 58° |
| 2026-04-25 06:10 | 40.97201 | 28.81953 | 88 ft | 2 kts | 57° |
| 2026-04-25 06:10 | 40.97215 | 28.81984 | 90 ft | 4 kts | 59° |
| 2026-04-25 06:10 | 40.97235 | 28.82027 | 92 ft | 6 kts | 58° |
| 2026-04-25 06:11 | 40.97259 | 28.82080 | 95 ft | 7 kts | 58° |
| 2026-04-25 06:11 | 40.97300 | 28.82166 | 95 ft | 13 kts | 68° |
| 2026-04-25 06:11 | 40.97354 | 28.82284 | 97 ft | 16 kts | 58° |
| 2026-04-25 06:11 | 40.97425 | 28.82435 | 98 ft | 21 kts | 58° |
| 2026-04-25 06:12 | 40.97510 | 28.82623 | 97 ft | 24 kts | 58° |
| 2026-04-25 06:12 | 40.97583 | 28.82778 | 95 ft | 19 kts | 58° |
| 2026-04-25 06:12 | 40.97666 | 28.82954 | 88 ft | 25 kts | 58° |
| 2026-04-25 06:12 | 40.97763 | 28.83163 | 77 ft | 26 kts | 58° |
| 2026-04-25 06:13 | 40.97858 | 28.83369 | 60 ft | 25 kts | 59° |
| 2026-04-25 06:13 | 40.97878 | 28.83523 | 49 ft | 16 kts | 114° |
| 2026-04-25 06:13 | 40.97815 | 28.83569 | 50 ft | 9 kts | 169° |
| 2026-04-25 06:14 | 40.97703 | 28.83454 | 61 ft | 43 kts | 239° |
| 2026-04-25 06:14 | 40.97371 | 28.82738 | 94 ft | 134 kts | 238° |
| 2026-04-25 06:14 | 40.96798 | 28.81516 | 472 ft | 172 kts | 239° |
| 2026-04-25 06:14 | 40.96131 | 28.80068 | 1172 ft | 196 kts | 239° |
| 2026-04-25 06:15 | 40.95410 | 28.78482 | 1893 ft | 210 kts | 239° |
| 2026-04-25 06:15 | 40.94662 | 28.76854 | 2774 ft | 208 kts | 239° |
| 2026-04-25 06:15 | 40.93894 | 28.75178 | 3648 ft | 219 kts | 239° |
| 2026-04-25 06:15 | 40.93126 | 28.73501 | 4899 ft | 218 kts | 239° |
| 2026-04-25 06:16 | 40.92328 | 28.71758 | 5753 ft | 237 kts | 239° |
| 2026-04-25 06:16 | 40.91428 | 28.69780 | 6468 ft | 261 kts | 240° |
| 2026-04-25 06:16 | 40.90548 | 28.67647 | 7308 ft | 276 kts | 244° |
| 2026-04-25 06:16 | 40.89703 | 28.65342 | 8243 ft | 283 kts | 245° |
| 2026-04-25 06:17 | 40.88842 | 28.62984 | 9220 ft | 287 kts | 244° |
| 2026-04-25 06:17 | 40.87981 | 28.60630 | 10186 ft | 291 kts | 244° |
| 2026-04-25 06:17 | 40.87102 | 28.58233 | 11174 ft | 295 kts | 244° |
| 2026-04-25 06:17 | 40.86209 | 28.55799 | 12166 ft | 298 kts | 244° |
| 2026-04-25 06:18 | 40.85332 | 28.53339 | 13154 ft | 302 kts | 249° |
| 2026-04-25 06:18 | 40.84889 | 28.50629 | 14126 ft | 304 kts | 269° |
| 2026-04-25 06:18 | 40.85186 | 28.47926 | 15058 ft | 306 kts | 290° |
| 2026-04-25 06:18 | 40.86230 | 28.45476 | 15941 ft | 310 kts | 310° |
| 2026-04-25 06:19 | 40.87715 | 28.43379 | 16673 ft | 320 kts | 314° |
| 2026-04-25 06:19 | 40.89263 | 28.41253 | 17493 ft | 326 kts | 314° |
| 2026-04-25 06:19 | 40.90836 | 28.39084 | 18376 ft | 330 kts | 314° |
| 2026-04-25 06:19 | 40.92416 | 28.36901 | 19104 ft | 334 kts | 314° |
| 2026-04-25 06:20 | 40.94029 | 28.34671 | 19838 ft | 339 kts | 314° |
| 2026-04-25 06:20 | 40.95681 | 28.32384 | 20644 ft | 343 kts | 315° |
| 2026-04-25 06:20 | 40.97311 | 28.30125 | 21569 ft | 347 kts | 315° |
| 2026-04-25 06:20 | 40.98993 | 28.27792 | 22298 ft | 351 kts | 315° |
| 2026-04-25 06:21 | 41.00684 | 28.25444 | 23027 ft | 354 kts | 315° |
| 2026-04-25 06:21 | 41.02378 | 28.23090 | 23744 ft | 357 kts | 316° |
| 2026-04-25 06:21 | 41.04091 | 28.20707 | 24440 ft | 361 kts | 315° |
| 2026-04-25 06:21 | 41.05815 | 28.18306 | 25157 ft | 363 kts | 315° |
| 2026-04-25 06:22 | 41.07571 | 28.15857 | 25872 ft | 365 kts | 315° |
| 2026-04-25 06:22 | 41.09325 | 28.13411 | 26519 ft | 369 kts | 315° |
| 2026-04-25 06:22 | 41.11093 | 28.10943 | 27130 ft | 372 kts | 315° |
| 2026-04-25 06:22 | 41.12878 | 28.08447 | 27734 ft | 375 kts | 315° |
| 2026-04-25 06:23 | 41.14684 | 28.05921 | 28340 ft | 377 kts | 315° |
| 2026-04-25 06:23 | 41.16492 | 28.03389 | 28910 ft | 379 kts | 315° |
| 2026-04-25 06:23 | 41.18314 | 28.00836 | 29440 ft | 382 kts | 315° |
| 2026-04-25 06:23 | 41.20156 | 27.98253 | 29944 ft | 385 kts | 315° |
| 2026-04-25 06:24 | 41.21990 | 27.95678 | 30425 ft | 388 kts | 315° |
| 2026-04-25 06:24 | 41.23848 | 27.93066 | 30919 ft | 390 kts | 315° |
| 2026-04-25 06:24 | 41.25727 | 27.90424 | 31357 ft | 393 kts | 315° |
| 2026-04-25 06:24 | 41.27685 | 27.87881 | 31774 ft | 393 kts | 323° |
| 2026-04-25 06:25 | 41.29966 | 27.85926 | 32147 ft | 393 kts | 335° |
| 2026-04-25 06:25 | 41.32512 | 27.84578 | 32510 ft | 394 kts | 345° |
| 2026-04-25 06:25 | 41.35206 | 27.83667 | 32844 ft | 397 kts | 347° |
| 2026-04-25 06:25 | 41.37870 | 27.82807 | 33211 ft | 398 kts | 347° |
| 2026-04-25 06:26 | 41.40583 | 27.81922 | 33574 ft | 400 kts | 347° |
| 2026-04-25 06:26 | 41.43285 | 27.80987 | 33926 ft | 402 kts | 343° |
| 2026-04-25 06:26 | 41.45887 | 27.79587 | 34349 ft | 402 kts | 334° |
| 2026-04-25 06:26 | 41.48235 | 27.77662 | 34775 ft | 401 kts | 326° |
| 2026-04-25 06:27 | 41.50518 | 27.75489 | 35119 ft | 400 kts | 326° |
| 2026-04-25 06:27 | 41.52774 | 27.73340 | 35459 ft | 399 kts | 326° |
| 2026-04-25 06:27 | 41.55024 | 27.71197 | 35777 ft | 398 kts | 326° |
| 2026-04-25 06:27 | 41.57290 | 27.69037 | 36082 ft | 397 kts | 326° |
| 2026-04-25 06:28 | 41.59520 | 27.66910 | 36374 ft | 396 kts | 326° |
| 2026-04-25 06:28 | 41.61775 | 27.64757 | 36658 ft | 396 kts | 326° |
| 2026-04-25 06:28 | 41.63994 | 27.62637 | 37007 ft | 395 kts | 326° |
| 2026-04-25 06:28 | 41.66244 | 27.60486 | 37358 ft | 394 kts | 326° |
| 2026-04-25 06:29 | 41.68476 | 27.58349 | 37689 ft | 393 kts | 326° |
| 2026-04-25 06:29 | 41.70692 | 27.56226 | 37990 ft | 392 kts | 326° |
| 2026-04-25 06:29 | 41.72901 | 27.54109 | 38039 ft | 397 kts | 326° |
| 2026-04-25 06:30 | 41.77452 | 27.49743 | 38053 ft | 407 kts | 326° |
| 2026-04-25 06:30 | 41.82133 | 27.45242 | 38050 ft | 417 kts | 326° |
| 2026-04-25 06:31 | 41.86868 | 27.40682 | 38053 ft | 425 kts | 326° |
| 2026-04-25 06:31 | 41.91731 | 27.35986 | 38044 ft | 432 kts | 326° |
| 2026-04-25 06:32 | 41.96632 | 27.31247 | 38044 ft | 437 kts | 325° |
| 2026-04-25 06:32 | 42.01575 | 27.26454 | 38055 ft | 437 kts | 325° |
| 2026-04-25 06:33 | 42.06028 | 27.20923 | 38055 ft | 439 kts | 311° |
| 2026-04-25 06:33 | 42.09339 | 27.13958 | 38049 ft | 443 kts | 298° |
| 2026-04-25 06:34 | 42.12033 | 27.06509 | 38049 ft | 443 kts | 298° |
| 2026-04-25 06:34 | 42.14742 | 26.99006 | 38049 ft | 443 kts | 298° |
| 2026-04-25 06:35 | 42.17427 | 26.91544 | 38054 ft | 442 kts | 298° |
| 2026-04-25 06:35 | 42.20086 | 26.84127 | 38045 ft | 442 kts | 298° |
| 2026-04-25 06:36 | 42.22759 | 26.76651 | 38040 ft | 442 kts | 298° |
| 2026-04-25 06:36 | 42.25426 | 26.69170 | 38045 ft | 442 kts | 298° |
| 2026-04-25 06:37 | 42.28086 | 26.61689 | 38045 ft | 443 kts | 298° |
| 2026-04-25 06:37 | 42.30733 | 26.54226 | 38043 ft | 443 kts | 298° |
| 2026-04-25 06:38 | 42.33389 | 26.46713 | 38042 ft | 443 kts | 298° |
| 2026-04-25 06:38 | 42.36032 | 26.39218 | 38040 ft | 442 kts | 299° |
| 2026-04-25 06:39 | 42.38668 | 26.31721 | 38037 ft | 443 kts | 298° |
| 2026-04-25 06:39 | 42.41307 | 26.24196 | 38033 ft | 443 kts | 298° |
| 2026-04-25 06:40 | 42.43941 | 26.16663 | 38035 ft | 443 kts | 298° |
| 2026-04-25 06:40 | 42.46570 | 26.09125 | 38039 ft | 443 kts | 298° |
| 2026-04-25 06:41 | 42.49379 | 26.01769 | 38030 ft | 439 kts | 307° |
| 2026-04-25 06:41 | 42.53354 | 25.95522 | 38046 ft | 434 kts | 321° |
| 2026-04-25 06:42 | 42.57972 | 25.90344 | 38029 ft | 433 kts | 323° |
| 2026-04-25 06:42 | 42.62638 | 25.85150 | 38041 ft | 433 kts | 323° |
| 2026-04-25 06:43 | 42.67313 | 25.79936 | 38034 ft | 433 kts | 323° |
| 2026-04-25 06:43 | 42.71950 | 25.74751 | 38033 ft | 432 kts | 323° |
| 2026-04-25 06:44 | 42.76594 | 25.69548 | 38022 ft | 432 kts | 323° |
| 2026-04-25 06:44 | 42.81223 | 25.64351 | 38031 ft | 432 kts | 323° |
| 2026-04-25 06:45 | 42.85856 | 25.59137 | 38021 ft | 432 kts | 323° |
| 2026-04-25 06:45 | 42.90499 | 25.53902 | 38029 ft | 431 kts | 323° |
| 2026-04-25 06:46 | 42.95099 | 25.48704 | 38019 ft | 431 kts | 323° |
| 2026-04-25 06:46 | 42.99730 | 25.43461 | 38018 ft | 430 kts | 323° |
| 2026-04-25 06:47 | 43.04324 | 25.38250 | 38017 ft | 430 kts | 323° |
| 2026-04-25 06:47 | 43.08913 | 25.33032 | 38018 ft | 430 kts | 322° |
| 2026-04-25 06:48 | 43.13520 | 25.27784 | 38266 ft | 431 kts | 323° |
| 2026-04-25 06:48 | 43.15842 | 25.25136 | 38043 ft | 434 kts | 323° |
| 2026-04-25 06:48 | 43.18154 | 25.22494 | 37987 ft | 431 kts | 323° |
| 2026-04-25 06:49 | 43.22720 | 25.17270 | 38017 ft | 427 kts | 323° |
| 2026-04-25 06:49 | 43.27257 | 25.12070 | 38027 ft | 427 kts | 323° |
| 2026-04-25 06:50 | 43.31818 | 25.06832 | 38025 ft | 427 kts | 323° |
| 2026-04-25 06:50 | 43.36350 | 25.01616 | 38029 ft | 427 kts | 323° |
| 2026-04-25 06:51 | 43.40901 | 24.96368 | 38023 ft | 426 kts | 323° |
| 2026-04-25 06:51 | 43.45451 | 24.91110 | 38019 ft | 425 kts | 323° |
| 2026-04-25 06:52 | 43.49958 | 24.85891 | 38019 ft | 425 kts | 323° |
| 2026-04-25 06:52 | 43.54489 | 24.80634 | 38022 ft | 426 kts | 323° |
| 2026-04-25 06:53 | 43.59013 | 24.75374 | 38022 ft | 426 kts | 323° |
| 2026-04-25 06:53 | 43.63540 | 24.70100 | 38022 ft | 425 kts | 323° |
| 2026-04-25 06:54 | 43.68054 | 24.64829 | 38028 ft | 425 kts | 323° |
| 2026-04-25 06:54 | 43.72559 | 24.59560 | 38030 ft | 424 kts | 323° |
| 2026-04-25 06:55 | 43.76762 | 24.53837 | 38030 ft | 429 kts | 311° |
| 2026-04-25 06:55 | 43.80340 | 24.47236 | 38029 ft | 429 kts | 311° |
| 2026-04-25 06:56 | 43.83923 | 24.40608 | 38030 ft | 429 kts | 311° |
| 2026-04-25 06:56 | 43.87492 | 24.33988 | 38023 ft | 429 kts | 310° |
| 2026-04-25 06:57 | 43.91049 | 24.27375 | 38028 ft | 428 kts | 310° |
| 2026-04-25 06:57 | 43.94598 | 24.20762 | 38028 ft | 428 kts | 310° |
| 2026-04-25 06:58 | 43.98152 | 24.14123 | 38029 ft | 427 kts | 310° |
| 2026-04-25 06:58 | 44.01683 | 24.07511 | 38029 ft | 427 kts | 310° |
| 2026-04-25 06:59 | 44.05194 | 24.00924 | 38032 ft | 427 kts | 310° |
| 2026-04-25 06:59 | 44.08720 | 23.94291 | 38036 ft | 427 kts | 310° |
| 2026-04-25 07:00 | 44.12261 | 23.87618 | 38036 ft | 427 kts | 310° |
| 2026-04-25 07:00 | 44.15782 | 23.80965 | 38040 ft | 426 kts | 310° |
| 2026-04-25 07:01 | 44.19307 | 23.74288 | 38040 ft | 426 kts | 310° |
| 2026-04-25 07:01 | 44.22790 | 23.67675 | 38041 ft | 425 kts | 310° |
| 2026-04-25 07:02 | 44.26295 | 23.61006 | 38041 ft | 425 kts | 310° |
| 2026-04-25 07:02 | 44.29773 | 23.54375 | 38049 ft | 425 kts | 310° |
| 2026-04-25 07:03 | 44.33252 | 23.47723 | 38042 ft | 425 kts | 310° |
| 2026-04-25 07:03 | 44.36757 | 23.41009 | 38047 ft | 425 kts | 310° |
| 2026-04-25 07:04 | 44.40226 | 23.34346 | 38044 ft | 426 kts | 309° |
| 2026-04-25 07:04 | 44.43721 | 23.27621 | 38053 ft | 425 kts | 309° |
| 2026-04-25 07:05 | 44.47198 | 23.20912 | 38045 ft | 425 kts | 309° |
| 2026-04-25 07:05 | 44.50660 | 23.14218 | 38048 ft | 424 kts | 309° |
| 2026-04-25 07:06 | 44.54105 | 23.07540 | 38049 ft | 424 kts | 309° |
| 2026-04-25 07:06 | 44.57555 | 23.00839 | 38051 ft | 424 kts | 309° |
| 2026-04-25 07:07 | 44.61008 | 22.94116 | 38053 ft | 424 kts | 309° |
| 2026-04-25 07:07 | 44.64452 | 22.87393 | 38050 ft | 424 kts | 309° |
| 2026-04-25 07:08 | 44.67887 | 22.80673 | 38051 ft | 423 kts | 309° |
| 2026-04-25 07:08 | 44.71305 | 22.73970 | 38052 ft | 423 kts | 309° |
| 2026-04-25 07:09 | 44.74736 | 22.67228 | 38053 ft | 423 kts | 309° |
| 2026-04-25 07:09 | 44.78139 | 22.60524 | 38045 ft | 422 kts | 309° |
| 2026-04-25 07:10 | 44.81564 | 22.53764 | 38044 ft | 422 kts | 309° |
| 2026-04-25 07:10 | 44.84961 | 22.47044 | 38041 ft | 423 kts | 309° |
| 2026-04-25 07:11 | 44.88318 | 22.40390 | 38041 ft | 423 kts | 309° |
| 2026-04-25 07:11 | 44.91732 | 22.33605 | 38045 ft | 422 kts | 308° |
| 2026-04-25 07:12 | 44.95123 | 22.26851 | 38054 ft | 422 kts | 308° |
| 2026-04-25 07:12 | 45.00201 | 22.16706 | 38059 ft | 422 kts | 308° |
| 2026-04-25 07:13 | 45.03577 | 22.09941 | 38056 ft | 422 kts | 308° |
| 2026-04-25 07:13 | 45.06955 | 22.03156 | 38058 ft | 422 kts | 308° |
| 2026-04-25 07:14 | 45.10336 | 21.96350 | 38057 ft | 422 kts | 308° |
| 2026-04-25 07:14 | 45.13707 | 21.89548 | 38064 ft | 422 kts | 308° |
| 2026-04-25 07:15 | 45.17063 | 21.82758 | 38057 ft | 422 kts | 308° |
| 2026-04-25 07:15 | 45.20432 | 21.75929 | 38057 ft | 421 kts | 308° |
| 2026-04-25 07:16 | 45.23754 | 21.69175 | 38053 ft | 420 kts | 308° |
| 2026-04-25 07:16 | 45.27115 | 21.62329 | 38053 ft | 420 kts | 308° |
| 2026-04-25 07:17 | 45.30441 | 21.55538 | 38054 ft | 420 kts | 308° |
| 2026-04-25 07:17 | 45.33766 | 21.48730 | 38051 ft | 420 kts | 308° |
| 2026-04-25 07:18 | 45.37096 | 21.41898 | 38051 ft | 420 kts | 308° |
| 2026-04-25 07:18 | 45.40433 | 21.35034 | 38047 ft | 420 kts | 308° |
| 2026-04-25 07:19 | 45.43748 | 21.28199 | 38045 ft | 420 kts | 307° |
| 2026-04-25 07:19 | 45.47064 | 21.21345 | 38038 ft | 419 kts | 307° |
| 2026-04-25 07:20 | 45.50357 | 21.14523 | 38041 ft | 419 kts | 307° |
| 2026-04-25 07:20 | 45.53657 | 21.07671 | 38031 ft | 419 kts | 307° |
| 2026-04-25 07:21 | 45.56950 | 21.00815 | 38028 ft | 418 kts | 307° |
| 2026-04-25 07:21 | 45.60236 | 20.93958 | 38029 ft | 418 kts | 307° |
| 2026-04-25 07:22 | 45.63497 | 20.87136 | 38024 ft | 419 kts | 307° |
| 2026-04-25 07:22 | 45.66793 | 20.80226 | 38026 ft | 419 kts | 306° |
| 2026-04-25 07:23 | 45.70066 | 20.73348 | 38025 ft | 419 kts | 306° |
| 2026-04-25 07:23 | 45.73339 | 20.66451 | 38027 ft | 418 kts | 306° |
| 2026-04-25 07:24 | 45.76585 | 20.59594 | 38028 ft | 418 kts | 306° |
| 2026-04-25 07:24 | 45.79831 | 20.52723 | 38028 ft | 417 kts | 306° |
| 2026-04-25 07:25 | 45.83082 | 20.45823 | 38030 ft | 417 kts | 306° |
| 2026-04-25 07:25 | 45.86338 | 20.38896 | 38031 ft | 417 kts | 306° |
| 2026-04-25 07:26 | 45.89565 | 20.32015 | 38033 ft | 417 kts | 306° |
| 2026-04-25 07:26 | 45.92796 | 20.25108 | 38033 ft | 417 kts | 305° |
| 2026-04-25 07:27 | 45.96034 | 20.18168 | 38032 ft | 417 kts | 305° |
| 2026-04-25 07:27 | 45.99264 | 20.11229 | 38032 ft | 417 kts | 305° |
| 2026-04-25 07:28 | 46.02470 | 20.04323 | 38032 ft | 417 kts | 305° |
| 2026-04-25 07:28 | 46.05678 | 19.97397 | 38034 ft | 416 kts | 305° |
| 2026-04-25 07:29 | 46.08897 | 19.90431 | 38030 ft | 415 kts | 305° |
| 2026-04-25 07:29 | 46.12079 | 19.83526 | 38036 ft | 415 kts | 305° |
| 2026-04-25 07:30 | 46.15280 | 19.76564 | 38037 ft | 416 kts | 305° |
| 2026-04-25 07:30 | 46.18454 | 19.69594 | 38036 ft | 416 kts | 303° |
| 2026-04-25 07:31 | 46.21166 | 19.62255 | 38033 ft | 416 kts | 300° |
| 2026-04-25 07:31 | 46.23828 | 19.54859 | 38044 ft | 416 kts | 300° |
| 2026-04-25 07:32 | 46.26490 | 19.47450 | 38037 ft | 416 kts | 300° |
| 2026-04-25 07:32 | 46.29153 | 19.40022 | 38036 ft | 416 kts | 300° |
| 2026-04-25 07:33 | 46.31817 | 19.32578 | 38040 ft | 416 kts | 299° |
| 2026-04-25 07:33 | 46.34464 | 19.25161 | 38037 ft | 416 kts | 298° |
| 2026-04-25 07:34 | 46.37106 | 19.17740 | 38037 ft | 416 kts | 298° |
| 2026-04-25 07:34 | 46.39751 | 19.10292 | 38041 ft | 415 kts | 298° |
| 2026-04-25 07:35 | 46.42378 | 19.02874 | 38043 ft | 415 kts | 298° |
| 2026-04-25 07:35 | 46.45016 | 18.95405 | 38043 ft | 415 kts | 298° |
| 2026-04-25 07:36 | 46.47638 | 18.87965 | 38039 ft | 415 kts | 298° |
| 2026-04-25 07:36 | 46.50247 | 18.80537 | 38042 ft | 415 kts | 298° |
| 2026-04-25 07:37 | 46.52860 | 18.73079 | 38043 ft | 415 kts | 298° |
| 2026-04-25 07:37 | 46.55475 | 18.65596 | 38040 ft | 415 kts | 298° |
| 2026-04-25 07:38 | 46.58068 | 18.58153 | 38040 ft | 415 kts | 298° |
| 2026-04-25 07:38 | 46.60673 | 18.50654 | 38041 ft | 414 kts | 298° |
| 2026-04-25 07:39 | 46.63271 | 18.43155 | 38036 ft | 415 kts | 298° |
| 2026-04-25 07:39 | 46.65856 | 18.35673 | 38041 ft | 415 kts | 298° |
| 2026-04-25 07:40 | 46.68441 | 18.28170 | 38038 ft | 415 kts | 297° |
| 2026-04-25 07:40 | 46.71021 | 18.20658 | 38040 ft | 415 kts | 297° |
| 2026-04-25 07:41 | 46.73594 | 18.13148 | 38038 ft | 415 kts | 297° |
| 2026-04-25 07:41 | 46.76152 | 18.05659 | 38038 ft | 415 kts | 297° |
| 2026-04-25 07:42 | 46.78725 | 17.98101 | 38040 ft | 414 kts | 297° |
| 2026-04-25 07:42 | 46.81283 | 17.90570 | 38038 ft | 414 kts | 297° |
| 2026-04-25 07:43 | 46.83813 | 17.83098 | 38039 ft | 413 kts | 297° |
| 2026-04-25 07:43 | 46.86362 | 17.75548 | 38045 ft | 413 kts | 297° |
| 2026-04-25 07:44 | 46.88900 | 17.68009 | 38051 ft | 413 kts | 297° |
| 2026-04-25 07:44 | 46.91428 | 17.60481 | 38047 ft | 414 kts | 297° |
| 2026-04-25 07:45 | 46.93956 | 17.52929 | 38056 ft | 414 kts | 297° |
| 2026-04-25 07:45 | 46.96481 | 17.45361 | 38057 ft | 414 kts | 297° |
| 2026-04-25 07:46 | 46.98992 | 17.37817 | 38059 ft | 413 kts | 297° |
| 2026-04-25 07:46 | 47.01501 | 17.30253 | 38058 ft | 413 kts | 296° |
| 2026-04-25 07:47 | 47.04002 | 17.22695 | 38068 ft | 412 kts | 296° |
| 2026-04-25 07:47 | 47.06500 | 17.15122 | 38060 ft | 412 kts | 296° |
| 2026-04-25 07:48 | 47.08982 | 17.07576 | 38063 ft | 412 kts | 296° |
| 2026-04-25 07:48 | 47.11468 | 16.99994 | 38070 ft | 413 kts | 296° |
| 2026-04-25 07:49 | 47.13945 | 16.92419 | 38066 ft | 413 kts | 296° |
| 2026-04-25 07:49 | 47.16427 | 16.84803 | 38068 ft | 413 kts | 296° |
| 2026-04-25 07:50 | 47.18900 | 16.77195 | 38067 ft | 413 kts | 296° |
| 2026-04-25 07:50 | 47.21355 | 16.69620 | 38062 ft | 412 kts | 296° |
| 2026-04-25 07:51 | 47.23819 | 16.61993 | 38062 ft | 412 kts | 295° |
| 2026-04-25 07:51 | 47.26266 | 16.54398 | 38059 ft | 413 kts | 295° |
| 2026-04-25 07:52 | 47.28742 | 16.46789 | 38058 ft | 412 kts | 298° |
| 2026-04-25 07:52 | 47.31583 | 16.39432 | 38052 ft | 412 kts | 300° |
| 2026-04-25 07:53 | 47.34425 | 16.32114 | 38052 ft | 412 kts | 299° |
| 2026-04-25 07:53 | 47.37267 | 16.24773 | 38053 ft | 412 kts | 299° |
| 2026-04-25 07:54 | 47.40090 | 16.17456 | 38051 ft | 412 kts | 298° |
| 2026-04-25 07:54 | 47.42926 | 16.10084 | 38053 ft | 412 kts | 299° |
| 2026-04-25 07:55 | 47.45744 | 16.02735 | 38049 ft | 412 kts | 298° |
| 2026-04-25 07:55 | 47.48559 | 15.95373 | 38055 ft | 412 kts | 298° |
| 2026-04-25 07:56 | 47.51371 | 15.88000 | 38062 ft | 412 kts | 298° |
| 2026-04-25 07:56 | 47.54177 | 15.80619 | 38063 ft | 412 kts | 298° |
| 2026-04-25 07:57 | 47.56978 | 15.73229 | 38076 ft | 412 kts | 298° |
| 2026-04-25 07:57 | 47.59768 | 15.65849 | 38064 ft | 412 kts | 298° |
| 2026-04-25 07:58 | 47.62558 | 15.58450 | 38067 ft | 412 kts | 298° |
| 2026-04-25 07:58 | 47.65345 | 15.51036 | 38067 ft | 412 kts | 298° |
| 2026-04-25 07:59 | 47.68132 | 15.43602 | 38066 ft | 412 kts | 298° |
| 2026-04-25 07:59 | 47.70895 | 15.36210 | 38069 ft | 412 kts | 298° |
| 2026-04-25 08:00 | 47.73679 | 15.28742 | 38085 ft | 413 kts | 297° |
| 2026-04-25 08:00 | 47.76450 | 15.21288 | 38061 ft | 413 kts | 297° |
| 2026-04-25 08:01 | 47.79213 | 15.13834 | 38068 ft | 413 kts | 297° |
| 2026-04-25 08:01 | 47.81980 | 15.06347 | 38072 ft | 412 kts | 297° |
| 2026-04-25 08:02 | 47.84746 | 14.98843 | 38072 ft | 412 kts | 297° |
| 2026-04-25 08:02 | 47.87493 | 14.91367 | 38074 ft | 412 kts | 297° |
| 2026-04-25 08:03 | 47.90240 | 14.83874 | 38072 ft | 413 kts | 297° |
| 2026-04-25 08:03 | 47.92983 | 14.76368 | 38086 ft | 413 kts | 297° |
| 2026-04-25 08:04 | 47.95711 | 14.68882 | 38075 ft | 413 kts | 297° |
| 2026-04-25 08:04 | 47.98455 | 14.61327 | 38076 ft | 413 kts | 297° |
| 2026-04-25 08:05 | 48.01180 | 14.53807 | 38075 ft | 413 kts | 297° |
| 2026-04-25 08:05 | 48.03916 | 14.46234 | 38078 ft | 413 kts | 297° |
| 2026-04-25 08:06 | 48.06628 | 14.38703 | 38079 ft | 413 kts | 297° |
| 2026-04-25 08:06 | 48.09358 | 14.31104 | 38081 ft | 413 kts | 296° |
| 2026-04-25 08:07 | 48.12063 | 14.23553 | 38084 ft | 413 kts | 296° |
| 2026-04-25 08:07 | 48.14766 | 14.15983 | 38086 ft | 413 kts | 296° |
| 2026-04-25 08:08 | 48.17483 | 14.08353 | 38084 ft | 413 kts | 296° |
| 2026-04-25 08:08 | 48.20174 | 14.00775 | 38086 ft | 413 kts | 296° |
| 2026-04-25 08:09 | 48.22856 | 13.93200 | 38083 ft | 413 kts | 296° |
| 2026-04-25 08:09 | 48.25545 | 13.85580 | 38082 ft | 413 kts | 296° |
| 2026-04-25 08:10 | 48.28241 | 13.77923 | 38082 ft | 413 kts | 296° |
| 2026-04-25 08:10 | 48.30911 | 13.70312 | 38091 ft | 413 kts | 296° |
| 2026-04-25 08:11 | 48.33580 | 13.62682 | 38083 ft | 414 kts | 296° |
| 2026-04-25 08:11 | 48.36246 | 13.55043 | 38087 ft | 414 kts | 296° |
| 2026-04-25 08:12 | 48.38913 | 13.47375 | 38092 ft | 414 kts | 296° |
| 2026-04-25 08:12 | 48.41577 | 13.39693 | 38088 ft | 415 kts | 296° |
| 2026-04-25 08:13 | 48.44166 | 13.31917 | 38093 ft | 414 kts | 291° |
| 2026-04-25 08:14 | 48.47345 | 13.19846 | 38093 ft | 413 kts | 290° |
| 2026-04-25 08:14 | 48.49446 | 13.11830 | 38100 ft | 413 kts | 290° |
| 2026-04-25 08:15 | 48.51553 | 13.03772 | 38097 ft | 413 kts | 290° |
| 2026-04-25 08:15 | 48.53657 | 12.95696 | 38097 ft | 414 kts | 290° |
| 2026-04-25 08:16 | 48.55756 | 12.87629 | 38097 ft | 414 kts | 290° |
| 2026-04-25 08:16 | 48.57857 | 12.79530 | 38099 ft | 414 kts | 290° |
| 2026-04-25 08:17 | 48.59947 | 12.71443 | 38084 ft | 415 kts | 290° |
| 2026-04-25 08:17 | 48.62045 | 12.63303 | 38095 ft | 414 kts | 290° |
| 2026-04-25 08:18 | 48.64130 | 12.55187 | 38088 ft | 414 kts | 290° |
| 2026-04-25 08:18 | 48.66201 | 12.47092 | 38090 ft | 414 kts | 290° |
| 2026-04-25 08:19 | 48.68269 | 12.38989 | 38087 ft | 415 kts | 290° |
| 2026-04-25 08:19 | 48.70329 | 12.30880 | 38093 ft | 415 kts | 289° |
| 2026-04-25 08:20 | 48.72400 | 12.22701 | 38093 ft | 415 kts | 289° |
| 2026-04-25 08:20 | 48.74457 | 12.14558 | 38100 ft | 415 kts | 289° |
| 2026-04-25 08:21 | 48.76969 | 12.06704 | 38092 ft | 417 kts | 296° |
| 2026-04-25 08:21 | 48.79703 | 11.98943 | 38087 ft | 416 kts | 296° |
| 2026-04-25 08:22 | 48.82406 | 11.91231 | 38076 ft | 416 kts | 296° |
| 2026-04-25 08:22 | 48.85119 | 11.83464 | 38084 ft | 416 kts | 296° |
| 2026-04-25 08:23 | 48.87817 | 11.75717 | 38094 ft | 417 kts | 296° |
| 2026-04-25 08:23 | 48.90529 | 11.67901 | 38114 ft | 417 kts | 296° |
| 2026-04-25 08:24 | 48.93219 | 11.60123 | 38098 ft | 418 kts | 296° |
| 2026-04-25 08:24 | 48.95919 | 11.52289 | 38105 ft | 418 kts | 296° |
| 2026-04-25 08:25 | 48.98605 | 11.44474 | 38092 ft | 419 kts | 296° |
| 2026-04-25 08:25 | 49.01288 | 11.36643 | 38043 ft | 418 kts | 296° |
| 2026-04-25 08:26 | 49.03981 | 11.28756 | 38102 ft | 421 kts | 295° |
| 2026-04-25 08:26 | 49.06690 | 11.20797 | 38108 ft | 422 kts | 295° |
| 2026-04-25 08:27 | 49.09381 | 11.12902 | 38100 ft | 422 kts | 296° |
| 2026-04-25 08:27 | 49.12858 | 11.05731 | 38107 ft | 426 kts | 311° |
| 2026-04-25 08:28 | 49.17201 | 10.99534 | 38113 ft | 427 kts | 314° |
| 2026-04-25 08:28 | 49.21570 | 10.93344 | 38119 ft | 427 kts | 314° |
| 2026-04-25 08:29 | 49.25908 | 10.87184 | 38113 ft | 427 kts | 314° |
| 2026-04-25 08:29 | 49.30263 | 10.80981 | 38119 ft | 427 kts | 314° |
| 2026-04-25 08:30 | 49.34490 | 10.74627 | 38126 ft | 424 kts | 307° |
| 2026-04-25 08:30 | 49.37960 | 10.67384 | 38149 ft | 422 kts | 304° |
| 2026-04-25 08:31 | 49.41398 | 10.60078 | 38118 ft | 423 kts | 304° |
| 2026-04-25 08:31 | 49.44859 | 10.52704 | 38117 ft | 424 kts | 304° |
| 2026-04-25 08:32 | 49.48290 | 10.45375 | 38148 ft | 425 kts | 304° |
| 2026-04-25 08:32 | 49.51720 | 10.38031 | 38142 ft | 421 kts | 304° |
| 2026-04-25 08:33 | 49.55134 | 10.30700 | 38116 ft | 422 kts | 303° |
| 2026-04-25 08:33 | 49.58553 | 10.23339 | 38116 ft | 421 kts | 303° |
| 2026-04-25 08:34 | 49.61944 | 10.16018 | 38115 ft | 421 kts | 303° |
| 2026-04-25 08:34 | 49.65343 | 10.08661 | 38115 ft | 421 kts | 303° |
| 2026-04-25 08:35 | 49.68681 | 10.01313 | 38119 ft | 421 kts | 300° |
| 2026-04-25 08:35 | 49.71107 | 9.93138 | 38113 ft | 419 kts | 286° |
| 2026-04-25 08:36 | 49.72043 | 9.84271 | 38116 ft | 420 kts | 274° |
| 2026-04-25 08:36 | 49.72276 | 9.75269 | 38115 ft | 421 kts | 274° |
| 2026-04-25 08:37 | 49.72506 | 9.66235 | 38118 ft | 421 kts | 274° |
| 2026-04-25 08:37 | 49.72730 | 9.57155 | 38119 ft | 422 kts | 274° |
| 2026-04-25 08:38 | 49.72945 | 9.48148 | 38126 ft | 422 kts | 274° |
| 2026-04-25 08:38 | 49.73156 | 9.39080 | 38124 ft | 422 kts | 274° |
| 2026-04-25 08:39 | 49.73357 | 9.30076 | 38124 ft | 422 kts | 273° |
| 2026-04-25 08:39 | 49.73554 | 9.20975 | 38125 ft | 422 kts | 273° |
| 2026-04-25 08:40 | 49.73741 | 9.11975 | 38127 ft | 422 kts | 273° |
| 2026-04-25 08:40 | 49.73924 | 9.02909 | 38130 ft | 422 kts | 273° |
| 2026-04-25 08:41 | 49.74097 | 8.93887 | 38133 ft | 423 kts | 273° |
| 2026-04-25 08:41 | 49.74265 | 8.84829 | 38135 ft | 423 kts | 273° |
| 2026-04-25 08:42 | 49.74428 | 8.75699 | 38129 ft | 424 kts | 273° |
| 2026-04-25 08:42 | 49.74582 | 8.66646 | 38135 ft | 423 kts | 273° |
| 2026-04-25 08:43 | 49.74729 | 8.57532 | 38140 ft | 424 kts | 274° |
| 2026-04-25 08:43 | 49.74955 | 8.48436 | 38149 ft | 424 kts | 279° |
| 2026-04-25 08:44 | 49.76239 | 8.39586 | 38156 ft | 422 kts | 285° |
| 2026-04-25 08:44 | 49.77646 | 8.30862 | 38134 ft | 423 kts | 285° |
| 2026-04-25 08:45 | 49.79060 | 8.22041 | 38150 ft | 422 kts | 285° |
| 2026-04-25 08:45 | 49.80459 | 8.13264 | 38149 ft | 423 kts | 285° |
| 2026-04-25 08:46 | 49.81861 | 8.04419 | 38154 ft | 423 kts | 285° |
| 2026-04-25 08:46 | 49.83457 | 7.95645 | 38152 ft | 423 kts | 288° |
| 2026-04-25 08:47 | 49.85084 | 7.86948 | 38158 ft | 423 kts | 288° |
| 2026-04-25 08:47 | 49.86711 | 7.78205 | 38143 ft | 423 kts | 288° |
| 2026-04-25 08:48 | 49.88336 | 7.69439 | 38152 ft | 423 kts | 288° |
| 2026-04-25 08:48 | 49.89951 | 7.60678 | 38146 ft | 424 kts | 288° |
| 2026-04-25 08:49 | 49.91558 | 7.51914 | 38146 ft | 424 kts | 288° |
| 2026-04-25 08:49 | 49.93152 | 7.43179 | 38154 ft | 423 kts | 288° |
| 2026-04-25 08:50 | 49.94753 | 7.34367 | 38148 ft | 424 kts | 287° |
| 2026-04-25 08:50 | 49.96340 | 7.25588 | 38146 ft | 424 kts | 287° |
| 2026-04-25 08:51 | 49.97922 | 7.16796 | 38144 ft | 425 kts | 287° |
| 2026-04-25 08:51 | 49.99505 | 7.07953 | 38156 ft | 426 kts | 287° |
| 2026-04-25 08:52 | 50.01082 | 6.99104 | 38158 ft | 426 kts | 287° |
| 2026-04-25 08:52 | 50.02822 | 6.90365 | 38161 ft | 424 kts | 295° |
| 2026-04-25 08:53 | 50.05599 | 6.82295 | 38149 ft | 424 kts | 300° |
| 2026-04-25 08:53 | 50.08462 | 6.74244 | 38153 ft | 424 kts | 300° |
| 2026-04-25 08:54 | 50.11292 | 6.66260 | 38149 ft | 424 kts | 300° |
| 2026-04-25 08:54 | 50.14144 | 6.58189 | 38149 ft | 424 kts | 300° |
| 2026-04-25 08:55 | 50.16984 | 6.50164 | 38147 ft | 424 kts | 301° |
| 2026-04-25 08:55 | 50.20569 | 6.43008 | 38145 ft | 423 kts | 316° |
| 2026-04-25 08:56 | 50.25063 | 6.37073 | 38142 ft | 423 kts | 320° |
| 2026-04-25 08:56 | 50.29586 | 6.31214 | 38153 ft | 423 kts | 319° |
| 2026-04-25 08:57 | 50.34107 | 6.25342 | 38138 ft | 423 kts | 320° |
| 2026-04-25 08:57 | 50.38637 | 6.19441 | 38137 ft | 423 kts | 319° |
| 2026-04-25 08:58 | 50.43154 | 6.13542 | 38133 ft | 423 kts | 319° |
| 2026-04-25 08:58 | 50.47650 | 6.07655 | 38135 ft | 423 kts | 319° |
| 2026-04-25 08:59 | 50.52153 | 6.01743 | 38135 ft | 422 kts | 319° |
| 2026-04-25 08:59 | 50.56632 | 5.95849 | 38140 ft | 421 kts | 319° |
| 2026-04-25 09:00 | 50.61084 | 5.89806 | 38153 ft | 421 kts | 315° |
| 2026-04-25 09:00 | 50.64587 | 5.82524 | 38159 ft | 422 kts | 300° |
| 2026-04-25 09:01 | 50.66759 | 5.73934 | 38161 ft | 424 kts | 289° |
| 2026-04-25 09:01 | 50.68552 | 5.65096 | 38164 ft | 425 kts | 289° |
| 2026-04-25 09:02 | 50.70349 | 5.56213 | 38168 ft | 425 kts | 289° |
| 2026-04-25 09:02 | 50.72141 | 5.47318 | 38173 ft | 425 kts | 289° |
| 2026-04-25 09:03 | 50.73914 | 5.38474 | 38181 ft | 425 kts | 289° |
| 2026-04-25 09:03 | 50.75680 | 5.29631 | 38186 ft | 424 kts | 288° |
| 2026-04-25 09:04 | 50.77440 | 5.20772 | 38246 ft | 423 kts | 288° |
| 2026-04-25 09:04 | 50.79192 | 5.11920 | 38123 ft | 422 kts | 288° |
| 2026-04-25 09:05 | 50.80937 | 5.03033 | 38159 ft | 427 kts | 288° |
| 2026-04-25 09:05 | 50.82649 | 4.94085 | 38179 ft | 427 kts | 288° |
| 2026-04-25 09:06 | 50.84353 | 4.85123 | 38218 ft | 426 kts | 288° |
| 2026-04-25 09:06 | 50.86051 | 4.76156 | 38191 ft | 427 kts | 288° |
| 2026-04-25 09:07 | 50.87746 | 4.67159 | 38188 ft | 427 kts | 288° |
| 2026-04-25 09:07 | 50.89432 | 4.58177 | 38199 ft | 427 kts | 288° |
| 2026-04-25 09:08 | 50.91818 | 4.49684 | 38200 ft | 425 kts | 302° |
| 2026-04-25 09:08 | 50.94896 | 4.41702 | 38202 ft | 426 kts | 302° |
| 2026-04-25 09:09 | 50.97961 | 4.33713 | 38202 ft | 427 kts | 301° |
| 2026-04-25 09:09 | 51.01026 | 4.25695 | 38203 ft | 427 kts | 301° |
| 2026-04-25 09:10 | 51.04096 | 4.17639 | 38215 ft | 426 kts | 301° |
| 2026-04-25 09:10 | 51.07135 | 4.09636 | 38201 ft | 426 kts | 301° |
| 2026-04-25 09:11 | 51.11694 | 3.97587 | 38201 ft | 426 kts | 301° |
| 2026-04-25 09:11 | 51.14763 | 3.89441 | 38199 ft | 427 kts | 301° |
| 2026-04-25 09:12 | 51.17804 | 3.81346 | 38195 ft | 427 kts | 301° |
| 2026-04-25 09:12 | 51.20838 | 3.73241 | 38196 ft | 427 kts | 301° |
| 2026-04-25 09:13 | 51.23541 | 3.64867 | 38218 ft | 427 kts | 291° |
| 2026-04-25 09:13 | 51.24970 | 3.55661 | 38194 ft | 429 kts | 283° |
| 2026-04-25 09:14 | 51.26212 | 3.46317 | 38198 ft | 429 kts | 283° |
| 2026-04-25 09:14 | 51.27427 | 3.37079 | 38201 ft | 428 kts | 283° |
| 2026-04-25 09:15 | 51.28634 | 3.27726 | 38204 ft | 429 kts | 282° |
| 2026-04-25 09:15 | 51.29826 | 3.18428 | 38205 ft | 429 kts | 282° |
| 2026-04-25 09:16 | 51.31010 | 3.09121 | 38204 ft | 429 kts | 282° |
| 2026-04-25 09:16 | 51.32182 | 2.99841 | 38205 ft | 428 kts | 282° |
| 2026-04-25 09:17 | 51.33936 | 2.85840 | 38208 ft | 429 kts | 282° |
| 2026-04-25 09:18 | 51.35095 | 2.76514 | 38205 ft | 429 kts | 282° |
| 2026-04-25 09:18 | 51.36254 | 2.67143 | 38203 ft | 429 kts | 282° |
| 2026-04-25 09:19 | 51.37401 | 2.57833 | 38202 ft | 430 kts | 282° |
| 2026-04-25 09:19 | 51.38553 | 2.48404 | 38201 ft | 430 kts | 282° |
| 2026-04-25 09:20 | 51.39682 | 2.39091 | 38196 ft | 430 kts | 282° |
| 2026-04-25 09:20 | 51.40814 | 2.29692 | 38209 ft | 430 kts | 281° |
| 2026-04-25 09:21 | 51.41948 | 2.20356 | 38201 ft | 430 kts | 281° |
| 2026-04-25 09:21 | 51.43098 | 2.10925 | 38199 ft | 431 kts | 281° |
| 2026-04-25 09:22 | 51.44235 | 2.01544 | 38196 ft | 431 kts | 281° |
| 2026-04-25 09:22 | 51.45356 | 1.92109 | 38195 ft | 431 kts | 281° |
| 2026-04-25 09:23 | 51.46455 | 1.82717 | 38195 ft | 432 kts | 281° |
| 2026-04-25 09:23 | 51.47546 | 1.73283 | 38194 ft | 432 kts | 281° |
| 2026-04-25 09:24 | 51.48630 | 1.63843 | 38190 ft | 432 kts | 281° |
| 2026-04-25 09:24 | 51.49710 | 1.54367 | 38195 ft | 432 kts | 280° |
| 2026-04-25 09:25 | 51.50785 | 1.44875 | 38194 ft | 433 kts | 280° |
| 2026-04-25 09:25 | 51.51313 | 1.40183 | 38425 ft | 433 kts | 280° |
| 2026-04-25 09:25 | 51.51850 | 1.35388 | 38238 ft | 435 kts | 280° |
| 2026-04-25 09:26 | 51.52905 | 1.25922 | 38204 ft | 431 kts | 279° |
| 2026-04-25 09:26 | 51.53956 | 1.16395 | 38197 ft | 431 kts | 279° |
| 2026-04-25 09:27 | 51.54192 | 1.06840 | 38190 ft | 432 kts | 269° |
| 2026-04-25 09:27 | 51.54068 | 0.97234 | 38201 ft | 432 kts | 269° |
| 2026-04-25 09:28 | 51.53938 | 0.87570 | 38206 ft | 432 kts | 269° |
| 2026-04-25 09:28 | 51.53802 | 0.77985 | 38208 ft | 432 kts | 268° |
| 2026-04-25 09:29 | 51.53658 | 0.68361 | 38209 ft | 432 kts | 268° |
| 2026-04-25 09:29 | 51.53636 | 0.66936 | 38207 ft | 432 kts | 268° |
| 2026-04-25 10:18 | 51.53541 | 0.60890 | 38207 ft | 432 kts | 268° |
| 2026-04-25 10:19 | 51.53388 | 0.51226 | 38205 ft | 432 kts | 268° |
| 2026-04-25 10:19 | 51.53228 | 0.41554 | 37802 ft | 434 kts | 268° |
| 2026-04-25 10:19 | 51.53165 | 0.36764 | 37355 ft | 429 kts | 270° |
| 2026-04-25 10:20 | 51.53177 | 0.32066 | 37394 ft | 426 kts | 270° |
| 2026-04-25 10:20 | 51.53194 | 0.27340 | 36982 ft | 427 kts | 270° |
| 2026-04-25 10:20 | 51.53209 | 0.22561 | 36285 ft | 427 kts | 270° |
| 2026-04-25 10:20 | 51.53222 | 0.17794 | 35668 ft | 424 kts | 270° |
| 2026-04-25 10:21 | 51.53232 | 0.13162 | 35121 ft | 420 kts | 270° |
| 2026-04-25 10:21 | 51.53240 | 0.08526 | 34570 ft | 413 kts | 270° |
| 2026-04-25 10:21 | 51.53245 | 0.03935 | 34077 ft | 413 kts | 270° |
| 2026-04-25 10:21 | 51.53250 | -0.00667 | 33673 ft | 416 kts | 270° |
| 2026-04-25 10:22 | 51.53252 | -0.05314 | 33236 ft | 417 kts | 270° |
| 2026-04-25 10:22 | 51.53252 | -0.09967 | 32744 ft | 419 kts | 269° |
| 2026-04-25 10:22 | 51.53250 | -0.14707 | 32282 ft | 421 kts | 269° |
| 2026-04-25 10:22 | 51.53246 | -0.19354 | 31795 ft | 423 kts | 269° |
| 2026-04-25 10:23 | 51.53240 | -0.24084 | 31333 ft | 425 kts | 268° |
| 2026-04-25 10:23 | 51.53233 | -0.28823 | 30853 ft | 427 kts | 268° |
| 2026-04-25 10:23 | 51.53223 | -0.33627 | 30386 ft | 428 kts | 268° |
| 2026-04-25 10:23 | 51.53211 | -0.38384 | 29925 ft | 430 kts | 268° |
| 2026-04-25 10:24 | 51.53197 | -0.43196 | 29439 ft | 431 kts | 268° |
| 2026-04-25 10:24 | 51.53181 | -0.47981 | 28958 ft | 428 kts | 268° |
| 2026-04-25 10:24 | 51.53164 | -0.52730 | 28494 ft | 425 kts | 268° |
| 2026-04-25 10:24 | 51.53145 | -0.57474 | 28023 ft | 423 kts | 268° |
| 2026-04-25 10:25 | 51.53124 | -0.62220 | 27554 ft | 420 kts | 268° |
| 2026-04-25 10:25 | 51.53101 | -0.66862 | 27094 ft | 418 kts | 268° |
| 2026-04-25 10:25 | 51.53076 | -0.71489 | 26637 ft | 415 kts | 268° |
| 2026-04-25 10:25 | 51.53050 | -0.76101 | 26178 ft | 413 kts | 268° |
| 2026-04-25 10:26 | 51.53022 | -0.80673 | 25726 ft | 410 kts | 268° |
| 2026-04-25 10:26 | 51.52992 | -0.85279 | 25270 ft | 408 kts | 268° |
| 2026-04-25 10:26 | 51.52961 | -0.89753 | 24837 ft | 405 kts | 268° |
| 2026-04-25 10:26 | 51.52928 | -0.94328 | 24365 ft | 404 kts | 268° |
| 2026-04-25 10:27 | 51.52894 | -0.98774 | 23943 ft | 401 kts | 268° |
| 2026-04-25 10:27 | 51.52858 | -1.03255 | 23482 ft | 399 kts | 268° |
| 2026-04-25 10:27 | 51.52821 | -1.07696 | 23050 ft | 396 kts | 268° |
| 2026-04-25 10:27 | 51.52782 | -1.12052 | 22619 ft | 394 kts | 268° |
| 2026-04-25 10:28 | 51.52792 | -1.16462 | 22184 ft | 393 kts | 273° |
| 2026-04-25 10:28 | 51.53217 | -1.20772 | 21768 ft | 391 kts | 279° |
| 2026-04-25 10:28 | 51.53735 | -1.25030 | 21365 ft | 389 kts | 279° |
| 2026-04-25 10:28 | 51.54248 | -1.29323 | 20972 ft | 388 kts | 279° |
| 2026-04-25 10:29 | 51.54755 | -1.33578 | 20573 ft | 385 kts | 279° |
| 2026-04-25 10:29 | 51.55249 | -1.37742 | 20193 ft | 383 kts | 279° |
| 2026-04-25 10:29 | 51.55745 | -1.41948 | 19803 ft | 381 kts | 279° |
| 2026-04-25 10:29 | 51.56238 | -1.46133 | 19415 ft | 380 kts | 280° |
| 2026-04-25 10:30 | 51.56728 | -1.50316 | 19027 ft | 377 kts | 280° |
| 2026-04-25 10:30 | 51.57206 | -1.54416 | 18653 ft | 375 kts | 280° |
| 2026-04-25 10:30 | 51.57684 | -1.58530 | 18262 ft | 374 kts | 280° |
| 2026-04-25 10:30 | 51.58161 | -1.62657 | 17885 ft | 372 kts | 280° |
| 2026-04-25 10:31 | 51.58569 | -1.66753 | 17507 ft | 370 kts | 276° |
| 2026-04-25 10:31 | 51.58875 | -1.70872 | 17125 ft | 368 kts | 276° |
| 2026-04-25 10:31 | 51.59174 | -1.74936 | 16751 ft | 366 kts | 276° |
| 2026-04-25 10:31 | 51.59473 | -1.79014 | 16377 ft | 365 kts | 276° |
| 2026-04-25 10:32 | 51.59767 | -1.83046 | 15984 ft | 357 kts | 276° |
| 2026-04-25 10:32 | 51.59938 | -1.86931 | 15063 ft | 349 kts | 266° |
| 2026-04-25 10:32 | 51.59331 | -1.90640 | 13954 ft | 346 kts | 244° |
| 2026-04-25 10:32 | 51.58183 | -1.94025 | 12810 ft | 344 kts | 240° |
| 2026-04-25 10:33 | 51.57025 | -1.97259 | 12291 ft | 321 kts | 240° |
| 2026-04-25 10:33 | 51.55954 | -2.00241 | 12034 ft | 298 kts | 240° |
| 2026-04-25 10:33 | 51.54824 | -2.02931 | 11510 ft | 288 kts | 227° |
| 2026-04-25 10:33 | 51.53337 | -2.05085 | 10848 ft | 285 kts | 221° |
| 2026-04-25 10:34 | 51.51812 | -2.07121 | 10185 ft | 283 kts | 220° |
| 2026-04-25 10:34 | 51.50310 | -2.09123 | 9529 ft | 281 kts | 220° |
| 2026-04-25 10:34 | 51.48815 | -2.11115 | 8876 ft | 278 kts | 220° |
| 2026-04-25 10:34 | 51.47340 | -2.13084 | 8221 ft | 276 kts | 220° |
| 2026-04-25 10:35 | 51.45863 | -2.15056 | 7584 ft | 273 kts | 220° |
| 2026-04-25 10:35 | 51.44443 | -2.16953 | 7236 ft | 260 kts | 220° |
| 2026-04-25 10:35 | 51.43067 | -2.18795 | 6630 ft | 260 kts | 220° |
| 2026-04-25 10:35 | 51.41683 | -2.20648 | 6031 ft | 258 kts | 220° |
| 2026-04-25 10:36 | 51.40303 | -2.22500 | 5420 ft | 257 kts | 220° |
| 2026-04-25 10:36 | 51.38950 | -2.24318 | 4994 ft | 249 kts | 220° |
| 2026-04-25 10:36 | 51.37617 | -2.26114 | 4744 ft | 251 kts | 220° |
| 2026-04-25 10:36 | 51.36286 | -2.27928 | 4526 ft | 253 kts | 223° |
| 2026-04-25 10:37 | 51.35332 | -2.30204 | 4342 ft | 242 kts | 254° |
| 2026-04-25 10:37 | 51.35344 | -2.32762 | 4186 ft | 223 kts | 291° |
| 2026-04-25 10:37 | 51.36014 | -2.34922 | 4011 ft | 212 kts | 300° |
| 2026-04-25 10:37 | 51.36753 | -2.36965 | 3822 ft | 212 kts | 301° |
| 2026-04-25 10:38 | 51.37503 | -2.39029 | 3552 ft | 213 kts | 301° |
| 2026-04-25 10:38 | 51.38242 | -2.41066 | 3347 ft | 209 kts | 301° |
| 2026-04-25 10:38 | 51.38927 | -2.43030 | 3224 ft | 194 kts | 295° |
| 2026-04-25 10:38 | 51.39265 | -2.45078 | 3088 ft | 190 kts | 276° |
| 2026-04-25 10:39 | 51.39274 | -2.47210 | 2830 ft | 189 kts | 266° |
| 2026-04-25 10:39 | 51.39162 | -2.49289 | 2581 ft | 186 kts | 265° |
| 2026-04-25 10:39 | 51.39049 | -2.51360 | 2490 ft | 185 kts | 266° |
| 2026-04-25 10:39 | 51.38962 | -2.53421 | 2498 ft | 186 kts | 266° |
| 2026-04-25 10:40 | 51.38885 | -2.55509 | 2477 ft | 188 kts | 267° |
| 2026-04-25 10:40 | 51.38814 | -2.57511 | 2214 ft | 169 kts | 267° |
| 2026-04-25 10:40 | 51.38751 | -2.59244 | 2080 ft | 143 kts | 266° |
| 2026-04-25 10:40 | 51.38694 | -2.60774 | 1868 ft | 137 kts | 266° |
| 2026-04-25 10:41 | 51.38667 | -2.61491 | 1752 ft | 133 kts | 266° |
| 2026-04-25 10:41 | 51.38633 | -2.62383 | 1667 ft | 133 kts | 266° |
| 2026-04-25 10:41 | 51.38576 | -2.63874 | 1483 ft | 133 kts | 266° |
| 2026-04-25 10:41 | 51.38521 | -2.65350 | 1299 ft | 133 kts | 265° |
| 2026-04-25 10:42 | 51.38467 | -2.66828 | 1124 ft | 133 kts | 265° |
| 2026-04-25 10:42 | 51.38413 | -2.68305 | 948 ft | 133 kts | 265° |
| 2026-04-25 10:42 | 51.38354 | -2.69783 | 782 ft | 133 kts | 265° |
| 2026-04-25 10:42 | 51.38294 | -2.71264 | 609 ft | 130 kts | 265° |
| 2026-04-25 10:43 | 51.38245 | -2.72493 | 616 ft | 81 kts | 265° |
| 2026-04-25 10:43 | 51.38221 | -2.73152 | 603 ft | 49 kts | 269° |
| 2026-04-25 10:43 | 51.38269 | -2.73338 | 593 ft | 13 kts | 348° |
| 2026-04-25 10:43 | 51.38369 | -2.73313 | 593 ft | 16 kts | 43° |
| 2026-04-25 10:44 | 51.38387 | -2.73145 | 599 ft | 14 kts | 86° |
| 2026-04-25 10:44 | 51.38393 | -2.72988 | 604 ft | 13 kts | 86° |
| 2026-04-25 10:44 | 51.38399 | -2.72831 | 607 ft | 14 kts | 86° |
| 2026-04-25 10:44 | 51.38401 | -2.72782 | 609 ft | 0 kts | 86° |
| 2026-04-25 11:05 | 51.38401 | -2.72781 | 609 ft | 0 kts | 86° |
| 2026-04-25 11:05 | 51.38404 | -2.72724 | 610 ft | 10 kts | 86° |
| 2026-04-25 11:05 | 51.38410 | -2.72555 | 610 ft | 19 kts | 87° |
| 2026-04-25 11:06 | 51.38419 | -2.72300 | 607 ft | 27 kts | 85° |
| 2026-04-25 11:06 | 51.38431 | -2.71955 | 603 ft | 34 kts | 93° |
| 2026-04-25 11:06 | 51.38439 | -2.71629 | 598 ft | 17 kts | 85° |
| 2026-04-25 11:06 | 51.38417 | -2.71554 | 598 ft | 9 kts | 149° |
| 2026-04-25 11:07 | 51.38347 | -2.71483 | 600 ft | 14 kts | 147° |
| 2026-04-25 11:07 | 51.38242 | -2.71365 | 600 ft | 21 kts | 147° |
| 2026-04-25 11:07 | 51.38139 | -2.71249 | 601 ft | 14 kts | 111° |
| 2026-04-25 11:07 | 51.38118 | -2.71084 | 603 ft | 14 kts | 135° |
| 2026-04-25 11:08 | 51.38068 | -2.70942 | 603 ft | 8 kts | 149° |
| 2026-04-25 11:08 | 51.37991 | -2.70978 | 603 ft | 15 kts | 197° |
| 2026-04-25 11:08 | 51.37957 | -2.71060 | 603 ft | 12 kts | 307° |
| 2026-04-25 11:08 | 51.37936 | -2.71096 | 603 ft | 3 kts | 122° |
| 2026-04-25 11:09 | 51.37936 | -2.71085 | 603 ft | 0 kts | 58° |